createdAt,value
2022-09-03T00:00:15.730Z,1.45
2022-09-03T00:03:07.782Z,0.80
2022-09-03T00:05:48.093Z,0.55
2022-09-03T00:08:31.506Z,1.42
2022-09-03T00:11:26.164Z,1.05
2022-09-03T00:14:03.324Z,1.25
2022-09-03T00:16:55.392Z,0.60
2022-09-03T00:19:45.194Z,0.57
2022-09-03T00:22:22.019Z,1.40
2022-09-03T00:24:52.839Z,0.65
2022-09-03T00:27:27.105Z,0.93
2022-09-03T00:30:05.500Z,1.77
2022-09-03T00:33:10.292Z,0.73
2022-09-03T00:35:56.076Z,0.90
2022-09-03T00:38:28.493Z,0.65
2022-09-03T00:41:21.355Z,0.68
2022-09-03T00:44:14.206Z,1.75
2022-09-03T00:47:07.300Z,1.27
2022-09-03T00:50:03.238Z,1.25
2022-09-03T00:52:51.256Z,0.60
2022-09-03T00:55:58.938Z,0.88
2022-09-03T00:58:56.252Z,0.68
2022-09-03T01:01:53.579Z,0.85
2022-09-03T01:05:08.774Z,1.77
2022-09-03T01:08:08.394Z,1.02
2022-09-03T01:10:47.566Z,2.00
2022-09-03T01:13:28.694Z,0.55
2022-09-03T01:16:44.920Z,0.75
2022-09-03T01:19:48.885Z,0.43
2022-09-03T01:22:43.125Z,1.35
2022-09-03T01:25:23.248Z,0.70
2022-09-03T01:28:33.033Z,1.90
2022-09-03T01:31:47.698Z,1.73
2022-09-03T01:34:26.238Z,0.93
2022-09-03T01:37:05.333Z,2.15
2022-09-03T01:39:53.882Z,0.77
2022-09-03T01:42:37.702Z,0.35
2022-09-03T01:45:36.802Z,1.02
2022-09-03T01:48:17.030Z,2.28
2022-09-03T01:51:00.392Z,0.52
2022-09-03T01:53:39.688Z,1.48
2022-09-03T01:56:27.845Z,1.52
2022-09-03T01:59:07.913Z,0.82
2022-09-03T02:01:51.010Z,0.60
2022-09-03T02:04:25.127Z,0.32
2022-09-03T02:07:00.826Z,0.65
2022-09-03T02:09:32.904Z,0.68
2022-09-03T02:12:16.223Z,0.52
2022-09-03T02:14:47.070Z,0.17
2022-09-03T02:17:17.326Z,0.40
2022-09-03T02:19:47.954Z,0.60
2022-09-03T02:22:18.247Z,2.40
2022-09-03T02:24:48.530Z,0.82
2022-09-03T02:27:20.029Z,1.55
2022-09-03T02:29:50.879Z,1.95
2022-09-03T02:32:21.201Z,1.85
2022-09-03T02:34:51.461Z,1.35
2022-09-03T02:37:22.839Z,0.95
2022-09-03T02:39:53.361Z,0.80
2022-09-03T02:42:23.843Z,1.98
2022-09-03T02:45:01.314Z,0.85
2022-09-03T02:47:34.477Z,0.25
2022-09-03T02:50:04.841Z,0.93
2022-09-03T02:52:35.156Z,2.17
2022-09-03T02:55:05.821Z,0.63
2022-09-03T02:57:36.049Z,1.15
2022-09-03T03:00:07.418Z,0.55
2022-09-03T03:02:37.879Z,0.88
2022-09-03T03:05:10.316Z,0.35
2022-09-03T03:07:41.379Z,1.95
2022-09-03T03:10:12.762Z,1.20
2022-09-03T03:12:43.291Z,0.32
2022-09-03T03:15:13.536Z,0.88
2022-09-03T03:17:43.793Z,0.88
2022-09-03T03:20:14.079Z,0.68
2022-09-03T03:22:44.268Z,1.35
2022-09-03T03:25:14.621Z,0.43
2022-09-03T03:27:44.821Z,1.00
2022-09-03T03:30:15.418Z,1.63
2022-09-03T03:32:45.581Z,3.30
2022-09-03T03:35:15.884Z,5.80
2022-09-03T03:37:46.265Z,9.68
2022-09-03T03:40:17.171Z,11.15
2022-09-03T03:42:47.463Z,5.85
2022-09-03T03:45:17.879Z,4.47
2022-09-03T03:47:48.133Z,1.65
2022-09-03T03:50:18.521Z,3.33
2022-09-03T03:52:48.995Z,3.30
2022-09-03T03:55:19.267Z,5.60
2022-09-03T03:57:50.513Z,5.15
2022-09-03T04:00:20.699Z,2.67
2022-09-03T04:02:50.984Z,2.50
2022-09-03T04:05:23.158Z,1.25
2022-09-03T04:07:54.203Z,2.83
2022-09-03T04:10:24.701Z,1.17
2022-09-03T04:12:55.190Z,0.35
2022-09-03T04:15:25.470Z,1.65
2022-09-03T04:17:55.749Z,0.73
2022-09-03T04:20:25.970Z,0.43
2022-09-03T04:22:56.065Z,0.82
2022-09-03T04:25:26.442Z,1.65
2022-09-03T04:27:56.632Z,1.75
2022-09-03T04:30:28.026Z,0.80
2022-09-03T04:32:58.584Z,0.40
2022-09-03T04:35:31.901Z,2.38
2022-09-03T04:38:02.105Z,0.17
2022-09-03T04:40:32.381Z,0.65
2022-09-03T04:43:02.630Z,0.60
2022-09-03T04:45:32.955Z,0.85
2022-09-03T04:48:04.921Z,0.65
2022-09-03T04:50:35.883Z,1.23
2022-09-03T04:53:08.187Z,0.98
2022-09-03T04:55:39.195Z,2.33
2022-09-03T04:58:09.703Z,0.93
2022-09-03T05:00:40.144Z,2.17
2022-09-03T05:03:10.560Z,0.82
2022-09-03T05:05:40.944Z,0.63
2022-09-03T05:08:11.630Z,2.47
2022-09-03T05:10:41.867Z,0.88
2022-09-03T05:13:12.135Z,1.17
2022-09-03T05:15:44.330Z,1.85
2022-09-03T05:18:15.192Z,2.80
2022-09-03T05:20:45.414Z,1.15
2022-09-03T05:23:15.722Z,1.70
2022-09-03T05:25:57.589Z,2.15
2022-09-03T05:28:30.434Z,2.47
2022-09-03T05:31:02.484Z,1.98
2022-09-03T05:33:37.435Z,1.33
2022-09-03T05:36:10.667Z,1.20
2022-09-03T05:38:41.006Z,1.80
2022-09-03T05:41:13.399Z,1.25
2022-09-03T05:43:44.114Z,0.70
2022-09-03T05:46:18.787Z,1.77
2022-09-03T05:48:48.941Z,2.40
2022-09-03T05:51:19.371Z,2.65
2022-09-03T05:53:50.004Z,3.60
2022-09-03T05:56:23.175Z,2.08
2022-09-03T05:58:55.590Z,1.55
2022-09-03T06:01:34.665Z,0.90
2022-09-03T06:04:10.957Z,1.08
2022-09-03T06:06:45.515Z,3.22
2022-09-03T06:09:20.727Z,1.63
2022-09-03T06:11:52.398Z,1.92
2022-09-03T06:14:23.183Z,1.60
2022-09-03T06:16:53.483Z,1.73
2022-09-03T06:19:23.758Z,1.25
2022-09-03T06:21:53.943Z,1.85
2022-09-03T06:24:26.521Z,0.85
2022-09-03T06:26:58.730Z,0.43
2022-09-03T06:29:28.966Z,1.23
2022-09-03T06:31:59.734Z,2.17
2022-09-03T06:34:29.974Z,3.15
2022-09-03T06:37:00.141Z,2.80
2022-09-03T06:39:30.999Z,1.58
2022-09-03T06:42:01.184Z,2.22
2022-09-03T06:44:31.373Z,1.30
2022-09-03T06:47:01.700Z,1.05
2022-09-03T06:49:32.081Z,1.77
2022-09-03T06:52:02.486Z,2.17
2022-09-03T06:54:32.704Z,0.80
2022-09-03T06:57:03.822Z,1.65
2022-09-03T06:59:34.304Z,1.38
2022-09-03T07:02:04.733Z,1.90
2022-09-03T07:04:35.077Z,1.58
2022-09-03T07:07:06.063Z,2.47
2022-09-03T07:09:38.827Z,1.40
2022-09-03T07:12:11.400Z,1.25
2022-09-03T07:14:41.571Z,1.05
2022-09-03T07:17:13.183Z,1.20
2022-09-03T07:19:43.387Z,0.77
2022-09-03T07:22:13.576Z,0.90
2022-09-03T07:24:47.039Z,2.47
2022-09-03T07:27:17.420Z,1.77
2022-09-03T07:29:48.863Z,1.05
2022-09-03T07:32:19.678Z,1.10
2022-09-03T07:34:53.301Z,0.70
2022-09-03T07:37:24.365Z,1.38
2022-09-03T07:39:54.705Z,0.63
2022-09-03T07:42:27.257Z,0.50
2022-09-03T07:44:58.666Z,0.98
2022-09-03T07:47:29.826Z,1.08
2022-09-03T07:50:00.789Z,1.10
2022-09-03T07:52:31.321Z,0.60
2022-09-03T07:55:03.194Z,0.50
2022-09-03T07:57:33.404Z,1.40
2022-09-03T08:00:04.741Z,2.35
2022-09-03T08:02:35.015Z,0.65
2022-09-03T08:05:05.552Z,0.32
2022-09-03T08:07:35.683Z,0.85
2022-09-03T08:10:08.083Z,0.60
2022-09-03T08:12:38.380Z,0.60
2022-09-03T08:15:08.962Z,1.85
2022-09-03T08:17:39.105Z,0.57
2022-09-03T08:20:10.224Z,1.17
2022-09-03T08:22:40.451Z,0.50
2022-09-03T08:25:13.725Z,0.40
2022-09-03T08:27:44.144Z,0.55
2022-09-03T08:30:14.359Z,0.70
2022-09-03T08:32:44.608Z,0.52
2022-09-03T08:35:14.868Z,0.40
2022-09-03T08:37:45.064Z,0.43
2022-09-03T08:40:15.605Z,1.75
2022-09-03T08:43:24.138Z,0.30
2022-09-03T08:45:54.455Z,0.82
2022-09-03T08:48:26.483Z,0.85
2022-09-03T08:51:05.133Z,0.45
2022-09-03T08:53:49.479Z,0.70
2022-09-03T08:56:30.497Z,1.80
2022-09-03T08:59:02.114Z,0.52
2022-09-03T09:01:51.186Z,0.50
2022-09-03T09:04:32.537Z,0.80
2022-09-03T09:07:39.329Z,1.02
2022-09-03T09:10:14.124Z,0.90
2022-09-03T09:13:10.051Z,1.00
2022-09-03T09:16:06.379Z,1.80
2022-09-03T09:18:57.454Z,0.95
2022-09-03T09:21:32.534Z,0.60
2022-09-03T09:24:07.648Z,3.65
2022-09-03T09:26:41.838Z,1.02
2022-09-03T09:29:14.646Z,1.90
2022-09-03T09:31:45.335Z,1.00
2022-09-03T09:34:15.864Z,0.35
2022-09-03T09:36:54.317Z,1.65
2022-09-03T09:39:24.666Z,0.65
2022-09-03T09:42:00.392Z,0.95
2022-09-03T09:44:30.620Z,2.70
2022-09-03T09:47:12.352Z,0.70
2022-09-03T09:49:57.534Z,0.95
2022-09-03T09:52:30.732Z,0.85
2022-09-03T09:55:09.445Z,0.47
2022-09-03T09:57:40.755Z,0.32
2022-09-03T10:00:14.367Z,1.65
2022-09-03T10:02:51.130Z,0.60
2022-09-03T10:05:28.177Z,0.82
2022-09-03T10:08:22.404Z,0.68
2022-09-03T10:10:52.764Z,3.17
2022-09-03T10:13:36.419Z,1.58
2022-09-03T10:16:35.229Z,1.05
2022-09-03T10:20:07.966Z,0.70
2022-09-03T10:22:56.260Z,0.77
2022-09-03T10:25:58.289Z,0.30
2022-09-03T10:28:30.285Z,0.93
2022-09-03T10:31:32.212Z,1.08
2022-09-03T10:34:26.353Z,0.77
2022-09-03T10:37:02.878Z,0.47
2022-09-03T10:42:45.995Z,0.45
2022-09-03T10:45:53.544Z,0.80
2022-09-03T10:48:38.515Z,0.75
2022-09-03T10:51:28.182Z,0.80
2022-09-03T10:54:04.381Z,1.17
2022-09-03T10:57:03.946Z,1.02
2022-09-03T11:00:08.569Z,0.73
2022-09-03T11:03:13.147Z,0.85
2022-09-03T11:05:57.665Z,0.75
2022-09-03T11:08:31.030Z,1.48
2022-09-03T11:11:13.128Z,0.90
2022-09-03T11:13:51.946Z,0.80
2022-09-03T11:16:29.208Z,0.65
2022-09-03T11:19:11.535Z,0.70
2022-09-03T11:21:44.263Z,1.15
2022-09-03T11:24:17.543Z,0.93
2022-09-03T11:26:57.108Z,0.25
2022-09-03T11:29:39.311Z,0.70
2022-09-03T11:32:12.002Z,0.80
2022-09-03T11:34:51.020Z,1.75
2022-09-03T11:37:27.986Z,0.77
2022-09-03T11:40:05.214Z,0.65
2022-09-03T11:42:42.438Z,0.70
2022-09-03T11:45:28.407Z,1.45
2022-09-03T11:47:59.359Z,0.93
2022-09-03T11:50:32.111Z,1.98
2022-09-03T11:53:11.463Z,4.13
2022-09-03T11:56:06.236Z,2.78
2022-09-03T11:58:43.151Z,1.00
2022-09-03T12:01:18.336Z,1.02
2022-09-03T12:04:01.767Z,5.10
2022-09-03T12:06:42.640Z,9.90
2022-09-03T12:09:40.534Z,3.33
2022-09-03T12:12:38.476Z,1.75
2022-09-03T12:15:08.624Z,1.27
2022-09-03T12:18:18.957Z,2.70
2022-09-03T12:21:03.581Z,2.47
2022-09-03T12:23:45.166Z,2.25
2022-09-03T12:26:25.197Z,2.38
2022-09-03T12:28:58.517Z,1.63
2022-09-03T12:31:31.224Z,3.53
2022-09-03T12:34:15.181Z,1.90
2022-09-03T12:36:48.449Z,3.13
2022-09-03T12:42:28.649Z,2.80
2022-09-03T12:45:15.847Z,2.42
2022-09-03T12:47:46.632Z,2.45
2022-09-03T12:50:21.507Z,2.42
2022-09-03T12:53:03.791Z,2.30
2022-09-03T12:56:01.679Z,1.75
2022-09-03T12:58:59.684Z,2.22
2022-09-03T13:01:36.766Z,6.47
2022-09-03T13:04:15.490Z,5.22
2022-09-03T13:07:05.933Z,14.05
2022-09-03T13:09:39.934Z,8.85
2022-09-03T13:12:28.694Z,5.07
2022-09-03T13:15:08.434Z,8.25
2022-09-03T13:18:19.982Z,39.90
2022-09-03T13:21:18.991Z,20.58
2022-09-03T13:24:10.421Z,14.40
2022-09-03T13:26:49.764Z,19.90
2022-09-03T13:29:28.879Z,66.70
2022-09-03T13:32:08.645Z,34.40
2022-09-03T13:34:48.198Z,18.48
2022-09-03T13:37:33.644Z,29.60
2022-09-03T13:40:16.479Z,21.27
2022-09-03T13:42:55.382Z,7.75
2022-09-03T13:46:00.606Z,2.80
2022-09-03T13:48:59.608Z,2.97
2022-09-03T13:51:43.796Z,1.48
2022-09-03T13:54:48.022Z,1.42
2022-09-03T13:58:01.490Z,2.83
2022-09-03T14:00:42.085Z,1.15
2022-09-03T14:03:31.023Z,1.25
2022-09-03T14:06:19.857Z,1.70
2022-09-03T14:09:08.818Z,1.48
2022-09-03T14:11:58.141Z,1.27
2022-09-03T14:14:43.456Z,4.97
2022-09-03T14:17:37.472Z,1.17
2022-09-03T14:20:14.633Z,1.02
2022-09-03T14:22:56.886Z,1.83
2022-09-03T14:25:28.154Z,1.10
2022-09-03T14:28:18.718Z,1.08
2022-09-03T14:31:02.890Z,1.13
2022-09-03T14:33:53.440Z,1.45
2022-09-03T14:37:15.892Z,1.77
2022-09-03T14:39:46.318Z,0.63
2022-09-03T14:42:25.392Z,1.15
2022-09-03T14:45:13.295Z,1.15
2022-09-03T14:48:08.406Z,1.52
2022-09-03T14:50:46.788Z,3.22
2022-09-03T14:53:48.129Z,2.53
2022-09-03T14:56:38.695Z,1.10
2022-09-03T14:59:33.747Z,1.27
2022-09-03T15:02:28.017Z,0.85
2022-09-03T15:05:11.524Z,0.98
2022-09-03T15:07:56.427Z,2.28
2022-09-03T15:10:56.377Z,2.75
2022-09-03T15:13:34.930Z,1.00
2022-09-03T15:16:29.558Z,1.00
2022-09-03T15:19:01.969Z,1.35
2022-09-03T15:21:49.884Z,1.05
2022-09-03T15:24:56.830Z,1.15
2022-09-03T15:27:44.454Z,1.63
2022-09-03T15:30:20.309Z,4.93
2022-09-03T15:32:56.488Z,2.10
2022-09-03T15:38:38.293Z,1.30
2022-09-03T15:41:22.115Z,3.15
2022-09-03T15:43:59.451Z,1.15
2022-09-03T15:46:58.552Z,1.17
2022-09-03T15:49:59.605Z,1.23
2022-09-03T15:52:49.509Z,1.35
2022-09-03T15:55:32.397Z,0.47
2022-09-03T15:58:24.471Z,1.60
2022-09-03T16:01:03.904Z,2.63
2022-09-03T16:04:09.866Z,1.25
2022-09-03T16:06:58.809Z,1.85
2022-09-03T16:09:34.875Z,0.80
2022-09-03T16:14:52.158Z,0.98
2022-09-03T16:17:34.134Z,0.93
2022-09-03T16:20:18.705Z,1.58
2022-09-03T16:23:03.237Z,2.42
2022-09-03T16:25:50.378Z,1.27
2022-09-03T16:28:47.277Z,1.27
2022-09-03T16:31:48.004Z,1.60
2022-09-03T16:34:42.787Z,1.17
2022-09-03T16:37:37.522Z,1.50
2022-09-03T16:40:26.904Z,3.88
2022-09-03T16:43:39.258Z,3.00
2022-09-03T16:46:36.517Z,2.40
2022-09-03T16:49:34.788Z,4.90
2022-09-03T16:52:38.209Z,2.80
2022-09-03T16:55:25.597Z,5.47
2022-09-03T16:58:13.578Z,1.10
2022-09-03T17:01:19.563Z,0.88
2022-09-03T17:03:57.566Z,0.95
2022-09-03T17:06:51.813Z,1.08
2022-09-03T17:09:39.177Z,1.05
2022-09-03T17:12:48.454Z,1.05
2022-09-03T17:15:27.493Z,2.08
2022-09-03T17:18:24.804Z,1.20
2022-09-03T17:21:01.698Z,1.67
2022-09-03T17:23:50.482Z,1.42
2022-09-03T17:26:31.916Z,3.08
2022-09-03T17:29:36.238Z,1.90
2022-09-03T17:32:13.077Z,0.98
2022-09-03T17:34:56.527Z,1.63
2022-09-03T17:37:35.567Z,1.00
2022-09-03T17:40:47.718Z,1.65
2022-09-03T17:43:18.536Z,0.60
2022-09-03T17:45:48.731Z,0.82
2022-09-03T17:48:42.627Z,7.32
2022-09-03T17:51:37.163Z,1.60
2022-09-03T17:54:32.594Z,3.40
2022-09-03T17:57:13.441Z,1.27
2022-09-03T17:59:52.594Z,0.50
2022-09-03T18:02:50.665Z,1.70
2022-09-03T18:05:44.356Z,1.73
2022-09-03T18:08:16.311Z,1.38
2022-09-03T18:11:13.176Z,0.98
2022-09-03T18:13:47.260Z,1.17
2022-09-03T18:16:28.605Z,1.52
2022-09-03T18:19:18.544Z,1.90
2022-09-03T18:22:09.197Z,2.92
2022-09-03T18:25:08.363Z,1.25
2022-09-03T18:28:17.875Z,1.63
2022-09-03T18:31:06.883Z,1.65
2022-09-03T18:33:56.138Z,3.33
2022-09-03T18:36:45.431Z,1.52
2022-09-03T18:39:46.723Z,2.03
2022-09-03T18:43:03.670Z,0.52
2022-09-03T18:49:53.497Z,1.80
2022-09-03T18:53:02.916Z,1.75
2022-09-03T18:56:05.584Z,1.60
2022-09-03T18:59:11.009Z,2.33
2022-09-03T19:02:01.833Z,1.63
2022-09-03T19:05:05.749Z,1.77
2022-09-03T19:08:11.441Z,1.90
2022-09-03T19:11:36.697Z,1.65
2022-09-03T19:14:45.032Z,0.98
2022-09-03T19:18:15.527Z,3.90
2022-09-03T19:21:17.262Z,1.88
2022-09-03T19:24:05.947Z,2.10
2022-09-03T19:27:02.583Z,2.28
2022-09-03T19:30:14.889Z,2.65
2022-09-03T19:33:34.556Z,1.83
2022-09-03T19:36:34.989Z,1.83
2022-09-03T19:39:32.861Z,1.63
2022-09-03T19:42:36.862Z,1.13
2022-09-03T19:45:41.397Z,1.50
2022-09-03T19:49:15.425Z,2.47
2022-09-03T19:52:51.921Z,1.92
2022-09-03T19:55:44.935Z,1.98
2022-09-03T19:58:43.642Z,2.65
2022-09-03T20:01:33.230Z,1.90
2022-09-03T20:04:33.317Z,1.52
2022-09-03T20:07:26.184Z,2.90
2022-09-03T20:10:21.192Z,1.73
2022-09-03T20:13:10.201Z,2.15
2022-09-03T20:16:05.030Z,2.22
2022-09-03T20:18:54.181Z,2.83
2022-09-03T20:22:05.408Z,1.85
2022-09-03T20:24:56.813Z,2.08
2022-09-03T20:27:42.021Z,4.40
2022-09-03T20:30:19.654Z,1.38
2022-09-03T20:32:53.299Z,1.10
2022-09-03T20:35:59.102Z,1.85
2022-09-03T20:38:37.929Z,2.30
2022-09-03T20:41:16.821Z,1.52
2022-09-03T20:44:15.460Z,1.65
2022-09-03T20:47:04.544Z,1.70
2022-09-03T20:49:57.841Z,2.13
2022-09-03T20:52:46.029Z,1.88
2022-09-03T20:55:29.261Z,2.03
2022-09-03T20:58:19.552Z,2.03
2022-09-03T21:01:03.900Z,1.85
2022-09-03T21:03:55.617Z,2.65
2022-09-03T21:06:33.622Z,1.65
2022-09-03T21:09:29.193Z,2.20
2022-09-03T21:12:10.226Z,2.30
2022-09-03T21:14:54.690Z,1.38
2022-09-03T21:17:52.532Z,1.27
2022-09-03T21:20:45.233Z,2.08
2022-09-03T21:23:23.929Z,2.45
2022-09-03T21:25:57.277Z,2.50
2022-09-03T21:28:36.681Z,1.75
2022-09-03T21:31:26.748Z,1.05
2022-09-03T21:34:07.804Z,1.48
2022-09-03T21:36:41.705Z,1.42
2022-09-03T21:39:14.733Z,1.35
2022-09-03T21:41:53.561Z,1.85
2022-09-03T21:44:39.427Z,1.63
2022-09-03T21:47:21.500Z,1.15
2022-09-03T21:49:55.731Z,1.08
2022-09-03T21:52:54.668Z,2.25
2022-09-03T21:55:55.614Z,1.17
2022-09-03T21:58:44.283Z,2.13
2022-09-03T22:01:43.423Z,2.00
2022-09-03T22:04:13.630Z,2.25
2022-09-03T22:07:28.158Z,1.50
2022-09-03T22:10:03.484Z,1.50
2022-09-03T22:12:55.744Z,2.35
2022-09-03T22:15:27.222Z,1.35
2022-09-03T22:18:07.712Z,2.88
2022-09-03T22:20:37.958Z,3.10
2022-09-03T22:23:29.262Z,2.45
2022-09-03T22:26:07.605Z,3.60
2022-09-03T22:29:17.014Z,2.92
2022-09-03T22:32:14.920Z,3.70
2022-09-03T22:35:17.050Z,3.15
2022-09-03T22:38:11.673Z,4.38
2022-09-03T22:41:09.602Z,7.53
2022-09-03T22:43:48.578Z,5.97
2022-09-03T22:46:21.524Z,4.20
2022-09-03T22:49:21.422Z,4.55
2022-09-03T22:52:07.070Z,5.03
2022-09-03T22:55:06.489Z,3.97
2022-09-03T22:57:46.394Z,7.00
2022-09-03T23:00:17.913Z,3.92
2022-09-03T23:02:55.257Z,5.85
2022-09-03T23:05:35.634Z,2.63
2022-09-03T23:08:18.268Z,2.08
2022-09-03T23:10:55.213Z,1.83
2022-09-03T23:13:46.431Z,1.48
2022-09-03T23:16:30.777Z,1.33
2022-09-03T23:21:53.757Z,1.75
2022-09-03T23:24:35.972Z,5.15
2022-09-03T23:27:10.749Z,1.23
2022-09-03T23:30:00.111Z,0.90
2022-09-03T23:32:33.372Z,2.92
2022-09-03T23:35:19.727Z,1.35
2022-09-03T23:38:29.845Z,1.15
2022-09-03T23:41:09.330Z,0.75
2022-09-03T23:44:01.721Z,1.00
2022-09-03T23:46:45.952Z,1.27
2022-09-03T23:49:29.064Z,0.75
2022-09-03T23:52:33.080Z,2.47
2022-09-03T23:55:36.402Z,0.65
2022-09-03T23:58:33.959Z,0.75
